Aviation Digital Data Service (ADDS)

Output produced by METARs form (0914 UTC 21 December 2014)
found at http://www.aviationweather.gov/adds/metars/
 
KCXY 210856Z AUTO 00000KT 8SM OVC033 M02/M05 A3030 RMK AO2 SLP267 T10221050 51003
KCXY 210756Z AUTO 00000KT 9SM SCT032 OVC110 M02/M06 A3030 RMK AO2 SLP265 T10171056
KCXY 210656Z AUTO 28003KT 9SM OVC032 M02/M06 A3030 RMK AO2 SLP267 T10171056
KCXY 210556Z AUTO 28003KT 10SM OVC031 M02/M06 A3029 RMK AO2 SLP263 T10171056 11017 21044 56004
KCXY 210456Z AUTO 25003KT 10SM OVC030 M02/M06 A3029 RMK AO2 SLP264 T10221061 400171044
KCXY 210356Z AUTO 26003KT 10SM BKN032 BKN120 M02/M06 A3030 RMK AO2 SLP267 T10221061
KCXY 210256Z AUTO 25004KT 10SM FEW110 M03/M06 A3031 RMK AO2 SLP268 T10281061 53004
KCXY 210156Z AUTO 24003KT 9SM CLR M03/M07 A3029 RMK AO2 SLP261 T10331067
KCXY 210056Z 00000KT 10SM BKN120 M03/M06 A3028 RMK AO2 SLP259 T10281061
KCXY 202356Z 23003KT 10SM CLR M03/M06 A3029 RMK AO2 SLP264 T10281061 10017 21028 51011
KCXY 202256Z 26003KT 10SM CLR M02/M07 A3029 RMK AO2 SLP262 T10171067
KCXY 202156Z 32004KT 10SM CLR 00/M07 A3028 RMK AO2 SLP258 T00001067
KCXY 202056Z 35004KT 10SM CLR 01/M07 A3026 RMK AO2 SLP252 T00111067 55002
KCXY 201956Z 00000KT 10SM OVC031 01/M07 A3025 RMK AO2 SLP248 T00111067
KCXY 201856Z 35003KT 10SM OVC031 01/M07 A3026 RMK AO2 SLP250 T00111067
KCXY 201756Z 00000KT 10SM OVC030 01/M06 A3027 RMK AO2 SLP254 T00111061 10017 21017 58013
KCXY 201746Z 00000KT 10SM OVC030 01/M07 A3026 RMK AO2 T00111067
KCXY 201656Z 33004KT 10SM OVC029 01/M07 A3028 RMK AO2 SLP258 T00061067
KCXY 201556Z 04006KT 10SM BKN029 01/M07 A3030 RMK AO2 SLP267 T00061067
KCXY 201551Z 10SM BKN028 01/M07 A3030 RMK AO2
KCXY 201534Z 35005KT 10SM SCT028 01/M07 A3030 RMK AO2 T00061067
KCXY 201456Z 34004KT 10SM OVC029 00/M07 A3031 RMK AO2 SLP268 T00001067 51009
KCXY 201415Z VRB05KT 10SM OVC029 M01/M07 A3031 RMK AO2 T10061067
KCXY 201356Z 30006KT 10SM OVC030 M01/M07 A3030 RMK AO2 SLP267 T10061067
KCXY 201256Z 25007KT 10SM OVC031 M01/M07 A3031 RMK AO2 SLP271 T10111072
KCXY 201215Z 00000KT 10SM BKN031 M01/M07 A3028 RMK AO2 T10061072
KCXY 201156Z 32004KT 10SM BKN028 M01/M07 A3028 RMK AO2 SLP258 T10061072 10000 21011 53009
KCXY 201109Z AUTO 36007KT 10SM BKN029 M01/M07 A3025 RMK AO2 T10061072
KCXY 201056Z AUTO 34007KT 10SM OVC030 M01/M07 A3026 RMK AO2 SLP250 T10061072
KCXY 200956Z AUTO 33006KT 10SM OVC031 00/M07 A3025 RMK AO2 SLP249 T00001067
KCXY 200856Z AUTO 30005KT 10SM OVC032 00/M07 A3025 RMK AO2 SLP249 T00001067 51012
KCXY 200756Z AUTO 28006KT 10SM OVC036 M01/M07 A3024 RMK AO2 SLP246 T10061067
KCXY 200656Z AUTO 25006KT 10SM OVC041 M01/M06 A3023 RMK AO2 SLP241 T10061061
KCXY 200556Z AUTO 28005KT 10SM OVC041 M01/M07 A3022 RMK AO2 SLP237 T10111067 10011 21017 58003
KCXY 200456Z AUTO 28005KT 10SM CLR M01/M07 A3022 RMK AO2 SLP239 T10111067 400561017
KCXY 200356Z AUTO 26004KT 10SM FEW042 M01/M07 A3023 RMK AO2 SLP240 T10111067
KCXY 200256Z AUTO 28006KT 10SM SCT038 M01/M07 A3023 RMK AO2 SLP240 T10061067 53016
KCXY 200156Z AUTO 29005KT 10SM SCT039 00/M06 A3021 RMK AO2 SLP235 T00001061
KCXY 200056Z 29007KT 10SM CLR 01/M06 A3020 RMK AO2 SLP229 T00061061
KCXY 192356Z 30006KT 10SM CLR 01/M06 A3018 RMK AO2 SLP224 T00111061 10050 20011 51014
KCXY 192256Z 29007KT 10SM FEW040 01/M06 A3018 RMK AO2 SLP224 T00111061
KCXY 192156Z 30007KT 10SM CLR 02/M06 A3016 RMK AO2 SLP218 T00221061